Time;durP1;ratioP1;P1;durP2;ratioP2;P2;SDS_P1;SDS_P2;PMS_P1;PMS_P2;Temp;Humidity;BMP_temperature;BMP_pressure;BME280_temperature;BME280_humidity;BME280_pressure;Samples;Min_cycle;Max_cycle;Signal;HPM_P1;HPM_P2
2021/10/13 00:01:34;;;;;;;4.97;2.13;;;;;;;;;;4921423;29;20107;-36
2021/10/13 00:04:00;;;;;;;4.78;1.95;;;;;;;;;;4921140;29;20364;-36
2021/10/13 00:06:26;;;;;;;4.22;2.25;;;;;;;;;;4921186;29;20032;-36
2021/10/13 00:08:51;;;;;;;6.15;2.10;;;;;;;;;;4920987;29;20088;-36
2021/10/13 00:11:16;;;;;;;2.97;1.98;;;;;;;;;;4921060;29;20036;-36
2021/10/13 00:13:42;;;;;;;3.22;1.92;;;;;;;;;;4921383;29;20028;-37
2021/10/13 00:16:07;;;;;;;3.35;2.60;;;;;;;;;;4921185;29;20115;-37
2021/10/13 00:18:33;;;;;;;2.03;1.80;;;;;;;;;;4921062;29;20444;-36
2021/10/13 00:20:58;;;;;;;3.67;1.88;;;;;;;;;;4920899;29;20047;-36
2021/10/13 00:23:24;;;;;;;4.28;2.35;;;;;;;;;;4921264;29;20032;-36
2021/10/13 00:25:49;;;;;;;4.38;2.05;;;;;;;;;;4919884;29;20068;-36
2021/10/13 00:28:14;;;;;;;3.35;1.90;;;;;;;;;;4920723;29;20458;-36
2021/10/13 00:30:40;;;;;;;3.28;2.03;;;;;;;;;;4920776;29;20052;-37
2021/10/13 00:33:05;;;;;;;2.38;1.85;;;;;;;;;;4920985;29;20028;-36
2021/10/13 00:35:31;;;;;;;3.67;2.10;;;;;;;;;;4920839;29;20032;-36
2021/10/13 00:37:56;;;;;;;3.95;2.10;;;;;;;;;;4920818;29;20027;-36
2021/10/13 00:40:21;;;;;;;3.20;2.42;;;;;;;;;;4920935;29;20048;-36
2021/10/13 00:42:47;;;;;;;4.28;2.08;;;;;;;;;;4918026;29;20201;-36
2021/10/13 00:45:12;;;;;;;5.30;1.88;;;;;;;;;;4916673;29;20039;-36
2021/10/13 00:47:38;;;;;;;5.03;2.17;;;;;;;;;;4917844;29;20020;-36
2021/10/13 00:50:07;;;;;;;2.42;1.50;;;;;;;;;;4917571;29;20052;-36
2021/10/13 00:52:33;;;;;;;2.90;1.88;;;;;;;;;;4917614;29;20036;-36
2021/10/13 00:55:00;;;;;;;5.38;2.50;;;;;;;;;;4917671;29;20192;-36
2021/10/13 00:57:25;;;;;;;2.88;2.15;;;;;;;;;;4917627;29;20028;-36
2021/10/13 00:59:51;;;;;;;3.10;1.77;;;;;;;;;;4917632;29;20031;-36
2021/10/13 01:02:22;;;;;;;3.03;1.95;;;;;;;;;;4917573;29;20024;-36
2021/10/13 01:04:54;;;;;;;4.72;2.40;;;;;;;;;;4917431;29;20359;-36
2021/10/13 01:07:19;;;;;;;2.42;1.77;;;;;;;;;;4917848;29;20040;-36
2021/10/13 01:09:57;;;;;;;4.68;2.30;;;;;;;;;;4916167;29;20494;-36
2021/10/13 01:12:41;;;;;;;2.85;2.08;;;;;;;;;;4916161;29;20035;-36
2021/10/13 01:15:16;;;;;;;2.22;1.75;;;;;;;;;;4917247;29;20040;-36
2021/10/13 01:18:00;;;;;;;3.40;2.13;;;;;;;;;;4917331;29;20029;-42
2021/10/13 01:20:25;;;;;;;8.38;2.78;;;;;;;;;;4917306;29;20510;-37
2021/10/13 01:23:12;;;;;;;3.22;1.90;;;;;;;;;;4917453;29;20111;-37
2021/10/13 01:26:04;;;;;;;7.43;2.20;;;;;;;;;;4915946;29;20040;-37
2021/10/13 01:28:31;;;;;;;4.43;2.38;;;;;;;;;;4887861;29;20427;-37
2021/10/13 01:31:03;;;;;;;5.93;2.30;;;;;;;;;;4916845;29;20570;-37
2021/10/13 01:33:40;;;;;;;3.90;2.33;;;;;;;;;;4917023;29;20062;-37
2021/10/13 01:36:07;;;;;;;1.92;1.70;;;;;;;;;;4916970;29;20088;-37
2021/10/13 01:38:37;;;;;;;2.88;2.20;;;;;;;;;;4916956;29;20038;-38
2021/10/13 01:41:03;;;;;;;2.85;1.83;;;;;;;;;;4916728;29;20028;-37
2021/10/13 01:43:31;;;;;;;4.35;2.13;;;;;;;;;;4916860;29;20028;-37
2021/10/13 01:45:57;;;;;;;3.70;2.05;;;;;;;;;;4916807;29;20028;-36
2021/10/13 01:48:23;;;;;;;4.18;2.08;;;;;;;;;;4916840;29;20031;-36
2021/10/13 01:50:50;;;;;;;4.45;2.28;;;;;;;;;;4917021;29;20075;-37
2021/10/13 01:53:16;;;;;;;3.90;1.95;;;;;;;;;;4915965;29;20024;-36
2021/10/13 01:55:42;;;;;;;3.13;2.30;;;;;;;;;;4916190;29;20036;-37
2021/10/13 01:58:08;;;;;;;4.32;2.13;;;;;;;;;;4916755;29;20083;-37
2021/10/13 02:00:34;;;;;;;2.47;2.10;;;;;;;;;;4915558;29;20108;-36
2021/10/13 02:03:01;;;;;;;2.83;2.08;;;;;;;;;;4916639;29;20454;-36
2021/10/13 02:05:27;;;;;;;3.35;2.10;;;;;;;;;;4916709;29;20040;-37
2021/10/13 02:07:53;;;;;;;5.03;2.17;;;;;;;;;;4916273;29;20503;-36
2021/10/13 02:10:20;;;;;;;3.65;2.20;;;;;;;;;;4916298;29;20039;-36
2021/10/13 02:12:46;;;;;;;2.47;1.70;;;;;;;;;;4916360;29;20020;-41
2021/10/13 02:15:13;;;;;;;4.75;2.50;;;;;;;;;;4916378;29;20066;-36
2021/10/13 02:17:40;;;;;;;2.65;1.77;;;;;;;;;;4916512;29;20028;-37
2021/10/13 02:20:06;;;;;;;4.25;2.30;;;;;;;;;;4916329;29;20160;-37
2021/10/13 02:22:32;;;;;;;4.30;2.00;;;;;;;;;;4916118;29;20506;-37
2021/10/13 02:24:58;;;;;;;2.38;1.80;;;;;;;;;;4916085;29;20030;-36
2021/10/13 02:27:31;;;;;;;4.40;1.92;;;;;;;;;;4915975;29;20024;-36
2021/10/13 02:29:57;;;;;;;3.17;1.83;;;;;;;;;;4915828;29;20044;-37
2021/10/13 02:32:22;;;;;;;4.20;2.03;;;;;;;;;;4915742;29;20044;-36
2021/10/13 02:34:48;;;;;;;5.78;2.63;;;;;;;;;;4915981;29;20043;-39
2021/10/13 02:37:13;;;;;;;3.22;2.22;;;;;;;;;;4915733;29;20020;-37
2021/10/13 02:39:39;;;;;;;4.47;2.30;;;;;;;;;;4916136;29;20039;-36
2021/10/13 02:42:04;;;;;;;13.75;3.75;;;;;;;;;;4916014;29;20436;-36
2021/10/13 02:44:30;;;;;;;3.25;2.25;;;;;;;;;;4915669;29;20032;-37
2021/10/13 02:47:01;;;;;;;3.97;2.80;;;;;;;;;;4915784;29;20024;-37
2021/10/13 02:49:45;;;;;;;16.35;2.22;;;;;;;;;;4915927;29;20048;-37
2021/10/13 02:52:34;;;;;;;5.72;2.80;;;;;;;;;;4915853;29;20047;-36
2021/10/13 02:55:01;;;;;;;3.28;1.73;;;;;;;;;;4888532;29;20048;-36
2021/10/13 02:57:32;;;;;;;2.80;2.03;;;;;;;;;;4915539;29;20631;-36
2021/10/13 03:00:00;;;;;;;5.10;3.05;;;;;;;;;;4915441;29;20112;-36
2021/10/13 03:02:27;;;;;;;3.97;2.20;;;;;;;;;;4915550;29;20024;-36
2021/10/13 03:04:56;;;;;;;5.32;2.17;;;;;;;;;;4915050;29;20114;-36
2021/10/13 03:07:24;;;;;;;28.10;2.97;;;;;;;;;;4915441;29;20380;-36
2021/10/13 03:09:55;;;;;;;4.43;2.50;;;;;;;;;;4915351;29;20127;-36
2021/10/13 03:12:21;;;;;;;2.28;1.65;;;;;;;;;;4915560;29;20032;-36
2021/10/13 03:14:48;;;;;;;2.78;1.98;;;;;;;;;;4915622;29;20024;-36
2021/10/13 03:17:14;;;;;;;3.15;2.10;;;;;;;;;;4915427;29;20123;-36
2021/10/13 03:19:39;;;;;;;2.95;1.88;;;;;;;;;;4915293;29;20039;-36
2021/10/13 03:22:05;;;;;;;3.70;2.22;;;;;;;;;;4915436;29;20028;-36
2021/10/13 03:24:31;;;;;;;3.30;2.42;;;;;;;;;;4915228;29;20066;-36
2021/10/13 03:26:56;;;;;;;3.47;2.28;;;;;;;;;;4915199;29;20116;-36
2021/10/13 03:29:21;;;;;;;5.70;2.17;;;;;;;;;;4915020;29;20471;-36
2021/10/13 03:31:47;;;;;;;7.63;2.60;;;;;;;;;;4915157;29;20079;-35
2021/10/13 03:34:16;;;;;;;3.90;2.05;;;;;;;;;;4915291;29;20475;-36
2021/10/13 03:36:43;;;;;;;2.97;2.15;;;;;;;;;;4915140;29;20033;-36
2021/10/13 03:39:09;;;;;;;5.47;2.13;;;;;;;;;;4915124;29;20028;-36
2021/10/13 03:41:34;;;;;;;4.13;2.20;;;;;;;;;;4915048;29;20114;-36
2021/10/13 03:44:00;;;;;;;3.33;2.35;;;;;;;;;;4915147;29;20108;-36
2021/10/13 03:46:25;;;;;;;4.25;1.90;;;;;;;;;;4915040;29;20483;-36
2021/10/13 03:48:51;;;;;;;4.18;2.50;;;;;;;;;;4914862;29;20036;-36
2021/10/13 03:51:17;;;;;;;6.38;2.55;;;;;;;;;;4914955;29;20032;-36
2021/10/13 03:53:42;;;;;;;2.78;2.00;;;;;;;;;;4915060;29;20028;-36
2021/10/13 03:56:08;;;;;;;4.30;2.00;;;;;;;;;;4913650;29;20167;-36
2021/10/13 03:58:33;;;;;;;2.22;1.85;;;;;;;;;;4914915;29;20026;-38
2021/10/13 04:00:59;;;;;;;4.45;2.15;;;;;;;;;;4914849;29;20044;-36
2021/10/13 04:03:24;;;;;;;4.18;1.67;;;;;;;;;;4915100;29;20031;-36
2021/10/13 04:05:50;;;;;;;2.88;1.55;;;;;;;;;;4915148;29;20051;-36
2021/10/13 04:08:15;;;;;;;3.60;2.15;;;;;;;;;;4914642;29;20043;-36
2021/10/13 04:10:40;;;;;;;4.63;2.28;;;;;;;;;;4913503;29;20079;-36
2021/10/13 04:13:06;;;;;;;3.35;1.98;;;;;;;;;;4914767;29;20024;-36
2021/10/13 04:15:31;;;;;;;4.28;2.67;;;;;;;;;;4914827;29;20028;-36
2021/10/13 04:17:56;;;;;;;2.88;1.80;;;;;;;;;;4916912;29;20130;-36
2021/10/13 04:20:22;;;;;;;3.83;2.35;;;;;;;;;;4918631;29;20518;-36
2021/10/13 04:22:47;;;;;;;3.58;2.55;;;;;;;;;;4917053;29;20035;-36
2021/10/13 04:25:13;;;;;;;2.85;2.28;;;;;;;;;;4918088;29;20047;-36
2021/10/13 04:27:38;;;;;;;5.88;2.53;;;;;;;;;;4918198;29;20020;-36
2021/10/13 04:30:04;;;;;;;3.58;2.17;;;;;;;;;;4918030;29;20604;-36
2021/10/13 04:32:30;;;;;;;2.45;2.00;;;;;;;;;;4917908;29;20146;-36
2021/10/13 04:34:55;;;;;;;4.88;2.38;;;;;;;;;;4918150;29;20103;-36
2021/10/13 04:37:21;;;;;;;6.95;2.35;;;;;;;;;;4917829;29;20020;-37
2021/10/13 04:39:46;;;;;;;6.38;3.20;;;;;;;;;;4918316;29;20044;-37
2021/10/13 04:42:11;;;;;;;8.55;1.80;;;;;;;;;;4932794;29;20103;-37
2021/10/13 04:44:38;;;;;;;4.72;2.15;;;;;;;;;;4918152;29;20067;-36
2021/10/13 04:47:03;;;;;;;2.90;2.20;;;;;;;;;;4917781;29;20035;-36
2021/10/13 04:49:29;;;;;;;3.97;2.17;;;;;;;;;;4917777;29;20048;-37
2021/10/13 04:51:55;;;;;;;3.40;2.28;;;;;;;;;;4918013;29;20021;-36
2021/10/13 04:54:21;;;;;;;4.72;2.30;;;;;;;;;;4917694;29;20119;-36
2021/10/13 04:56:46;;;;;;;3.35;2.08;;;;;;;;;;4916482;29;20434;-37
2021/10/13 04:59:12;;;;;;;2.50;1.77;;;;;;;;;;4917569;29;20489;-36
2021/10/13 05:01:37;;;;;;;3.10;1.92;;;;;;;;;;4917686;29;20027;-37
2021/10/13 05:04:02;;;;;;;5.45;2.53;;;;;;;;;;4917531;29;20028;-36
2021/10/13 05:06:28;;;;;;;4.97;2.10;;;;;;;;;;4917426;29;20016;-36
2021/10/13 05:08:53;;;;;;;4.78;2.30;;;;;;;;;;4917410;29;20040;-36
2021/10/13 05:11:19;;;;;;;4.13;2.53;;;;;;;;;;4917463;29;20020;-36
2021/10/13 05:13:44;;;;;;;3.38;1.80;;;;;;;;;;4917384;29;20092;-36
2021/10/13 05:16:09;;;;;;;3.20;2.40;;;;;;;;;;4917331;29;20035;-36
2021/10/13 05:18:35;;;;;;;2.92;1.52;;;;;;;;;;4917345;29;20048;-36
2021/10/13 05:21:00;;;;;;;6.00;1.75;;;;;;;;;;4917118;29;20032;-36
2021/10/13 05:23:26;;;;;;;2.13;1.50;;;;;;;;;;4917508;29;20036;-36
2021/10/13 05:25:51;;;;;;;5.45;2.45;;;;;;;;;;4917213;29;20035;-36
2021/10/13 05:28:17;;;;;;;3.47;1.70;;;;;;;;;;4916661;29;20752;-35
2021/10/13 05:30:42;;;;;;;3.97;1.95;;;;;;;;;;4916979;29;20476;-36
2021/10/13 05:33:08;;;;;;;3.35;1.70;;;;;;;;;;4917123;29;20032;-36
2021/10/13 05:35:33;;;;;;;3.45;2.33;;;;;;;;;;4917229;29;20032;-36
2021/10/13 05:37:59;;;;;;;6.55;2.92;;;;;;;;;;4916796;29;20024;-37
2021/10/13 05:40:24;;;;;;;4.53;1.92;;;;;;;;;;4916971;29;20032;-36
2021/10/13 05:42:50;;;;;;;3.25;2.22;;;;;;;;;;4915730;29;20044;-37
2021/10/13 05:45:15;;;;;;;2.38;1.63;;;;;;;;;;4917069;29;20026;-36
2021/10/13 05:47:40;;;;;;;3.67;2.05;;;;;;;;;;4916749;29;20042;-36
2021/10/13 05:50:06;;;;;;;3.20;1.83;;;;;;;;;;4916599;29;20039;-36
2021/10/13 05:52:32;;;;;;;3.88;2.08;;;;;;;;;;4917015;29;20036;-36
2021/10/13 05:54:57;;;;;;;2.53;1.58;;;;;;;;;;4916717;29;20783;-36
2021/10/13 05:57:22;;;;;;;1.90;1.75;;;;;;;;;;4916464;29;20040;-36
2021/10/13 05:59:55;;;;;;;4.05;2.50;;;;;;;;;;4916601;29;20040;-36
2021/10/13 06:02:21;;;;;;;3.45;2.30;;;;;;;;;;4916755;29;20036;-36
2021/10/13 06:04:46;;;;;;;3.22;2.00;;;;;;;;;;4916687;29;20022;-36
2021/10/13 06:07:12;;;;;;;7.60;2.20;;;;;;;;;;4916560;29;20527;-36
2021/10/13 06:09:37;;;;;;;4.32;2.30;;;;;;;;;;4916564;29;20063;-36
2021/10/13 06:12:03;;;;;;;3.55;1.95;;;;;;;;;;4916575;29;20395;-36
2021/10/13 06:14:28;;;;;;;5.75;3.13;;;;;;;;;;4916668;29;20091;-36
2021/10/13 06:16:54;;;;;;;2.45;1.83;;;;;;;;;;4916445;29;20555;-37
2021/10/13 06:19:19;;;;;;;1.92;1.65;;;;;;;;;;4916130;29;20558;-37
2021/10/13 06:21:44;;;;;;;3.75;1.85;;;;;;;;;;4916165;29;20547;-36
2021/10/13 06:24:10;;;;;;;2.38;2.17;;;;;;;;;;4916050;29;20372;-37
2021/10/13 06:26:35;;;;;;;3.05;2.17;;;;;;;;;;4914938;29;20032;-36
2021/10/13 06:29:01;;;;;;;3.00;1.88;;;;;;;;;;4915916;29;20040;-37
2021/10/13 06:31:26;;;;;;;3.95;1.75;;;;;;;;;;4915820;29;20052;-36
2021/10/13 06:33:54;;;;;;;1.92;1.67;;;;;;;;;;4916026;29;20122;-36
2021/10/13 06:36:21;;;;;;;2.30;1.77;;;;;;;;;;4916105;29;20030;-37
2021/10/13 06:38:46;;;;;;;3.92;2.03;;;;;;;;;;4914569;29;20076;-36
2021/10/13 06:41:12;;;;;;;2.40;1.60;;;;;;;;;;4914056;29;20036;-36
2021/10/13 06:43:37;;;;;;;3.67;2.10;;;;;;;;;;4915806;29;20027;-36
2021/10/13 06:46:03;;;;;;;4.90;1.50;;;;;;;;;;4915635;29;20036;-37
2021/10/13 06:48:29;;;;;;;3.95;1.88;;;;;;;;;;4915682;29;20036;-36
2021/10/13 06:50:54;;;;;;;3.30;2.50;;;;;;;;;;4915675;29;20079;-36
2021/10/13 06:53:20;;;;;;;3.78;2.17;;;;;;;;;;4915616;29;20534;-36
2021/10/13 06:55:45;;;;;;;4.60;1.98;;;;;;;;;;4915629;29;20117;-36
2021/10/13 06:58:11;;;;;;;4.32;2.60;;;;;;;;;;4915504;29;20098;-36
2021/10/13 07:00:37;;;;;;;2.90;1.65;;;;;;;;;;4915764;29;20046;-36
2021/10/13 07:03:02;;;;;;;3.97;2.08;;;;;;;;;;4915649;29;20028;-36
2021/10/13 07:05:28;;;;;;;4.72;1.85;;;;;;;;;;4915589;29;20492;-39
2021/10/13 07:07:53;;;;;;;2.85;1.30;;;;;;;;;;4915606;29;20024;-36
2021/10/13 07:10:19;;;;;;;6.50;2.05;;;;;;;;;;4915332;29;20043;-36
2021/10/13 07:12:45;;;;;;;2.25;1.52;;;;;;;;;;4915680;29;20027;-37
2021/10/13 07:15:11;;;;;;;2.78;1.60;;;;;;;;;;4915231;29;20032;-36
2021/10/13 07:17:37;;;;;;;7.20;1.90;;;;;;;;;;4915573;29;20510;-36
2021/10/13 07:20:04;;;;;;;1.95;1.58;;;;;;;;;;4915505;29;20483;-36
2021/10/13 07:22:30;;;;;;;3.05;1.50;;;;;;;;;;4915261;29;20427;-36
2021/10/13 07:24:57;;;;;;;3.20;1.88;;;;;;;;;;4915564;29;20036;-36
2021/10/13 07:27:22;;;;;;;1.92;1.48;;;;;;;;;;4913792;29;20024;-36
2021/10/13 07:29:56;;;;;;;2.35;1.88;;;;;;;;;;4915073;29;20384;-36
2021/10/13 07:32:21;;;;;;;2.08;1.55;;;;;;;;;;4914972;29;20056;-36
2021/10/13 07:34:47;;;;;;;2.00;1.40;;;;;;;;;;4915241;29;20395;-36
2021/10/13 07:37:12;;;;;;;1.98;1.65;;;;;;;;;;4915043;29;20032;-36
2021/10/13 07:39:39;;;;;;;2.08;1.73;;;;;;;;;;4915086;29;20495;-36
2021/10/13 07:42:04;;;;;;;3.72;1.73;;;;;;;;;;4915119;29;20032;-36
2021/10/13 07:44:30;;;;;;;1.73;1.58;;;;;;;;;;4915088;29;20111;-36
2021/10/13 07:46:55;;;;;;;4.03;2.25;;;;;;;;;;4914994;29;20064;-36
2021/10/13 07:49:21;;;;;;;2.97;2.13;;;;;;;;;;4914940;29;20077;-36
2021/10/13 07:51:46;;;;;;;3.40;1.77;;;;;;;;;;4916755;29;20040;-36
2021/10/13 07:54:12;;;;;;;3.22;1.75;;;;;;;;;;4918989;29;20024;-36
2021/10/13 07:56:37;;;;;;;3.20;1.85;;;;;;;;;;4918944;29;20059;-36
2021/10/13 07:59:03;;;;;;;1.83;1.10;;;;;;;;;;4918559;29;20032;-36
2021/10/13 08:01:29;;;;;;;2.58;1.58;;;;;;;;;;4918962;29;20042;-37
2021/10/13 08:03:55;;;;;;;3.22;1.80;;;;;;;;;;4918680;29;20047;-36
2021/10/13 08:06:20;;;;;;;2.55;1.73;;;;;;;;;;4917365;29;20101;-36
2021/10/13 08:08:46;;;;;;;3.33;1.60;;;;;;;;;;4918799;29;20028;-36
2021/10/13 08:11:12;;;;;;;2.15;1.80;;;;;;;;;;4918390;29;20498;-36
2021/10/13 08:13:37;;;;;;;1.98;1.42;;;;;;;;;;4917313;29;20020;-36
2021/10/13 08:16:03;;;;;;;1.90;1.30;;;;;;;;;;4918347;29;20062;-36
2021/10/13 08:18:29;;;;;;;1.42;1.17;;;;;;;;;;4918665;29;20467;-36
2021/10/13 08:20:55;;;;;;;2.08;1.45;;;;;;;;;;4918578;29;20494;-36
2021/10/13 08:23:21;;;;;;;2.28;1.40;;;;;;;;;;4932848;29;20039;-37
2021/10/13 08:25:54;;;;;;;7.95;2.25;;;;;;;;;;4917042;29;20040;-36
2021/10/13 08:28:20;;;;;;;2.28;1.50;;;;;;;;;;4917994;29;20486;-37
2021/10/13 08:30:45;;;;;;;2.65;1.65;;;;;;;;;;4918104;29;20066;-36
2021/10/13 08:33:11;;;;;;;3.83;3.50;;;;;;;;;;4918075;29;20035;-36
2021/10/13 08:35:36;;;;;;;2.85;1.63;;;;;;;;;;4918158;29;20124;-36
2021/10/13 08:38:02;;;;;;;4.88;1.63;;;;;;;;;;4918040;29;20024;-37
2021/10/13 08:40:27;;;;;;;4.75;2.45;;;;;;;;;;4918234;29;20470;-36
2021/10/13 08:42:57;;;;;;;4.00;1.63;;;;;;;;;;4916769;29;20032;-36
2021/10/13 08:45:26;;;;;;;2.47;1.40;;;;;;;;;;4917902;29;20099;-36
2021/10/13 08:47:52;;;;;;;2.60;1.60;;;;;;;;;;4917704;29;20100;-36
2021/10/13 08:50:17;;;;;;;2.20;1.58;;;;;;;;;;4916589;29;20036;-36
2021/10/13 08:52:43;;;;;;;3.67;1.38;;;;;;;;;;4917833;29;20032;-36
2021/10/13 08:55:08;;;;;;;2.88;1.20;;;;;;;;;;4917731;29;20034;-36
2021/10/13 08:57:34;;;;;;;10.00;3.63;;;;;;;;;;4917936;29;20078;-36
2021/10/13 09:00:00;;;;;;;2.10;1.50;;;;;;;;;;4916460;29;20074;-36
2021/10/13 09:02:36;;;;;;;2.22;1.42;;;;;;;;;;4917440;29;20036;-36
2021/10/13 09:05:05;;;;;;;3.10;1.52;;;;;;;;;;4917608;29;20038;-36
2021/10/13 09:07:31;;;;;;;2.30;1.35;;;;;;;;;;4917529;29;20432;-36
2021/10/13 09:09:56;;;;;;;1.55;1.27;;;;;;;;;;4916113;29;20104;-36
2021/10/13 09:12:32;;;;;;;2.95;1.30;;;;;;;;;;4917439;29;20028;-36
2021/10/13 09:15:11;;;;;;;2.22;1.58;;;;;;;;;;4917401;29;20559;-36
2021/10/13 09:17:54;;;;;;;3.55;0.90;;;;;;;;;;4917303;29;20039;-37
2021/10/13 09:20:21;;;;;;;4.90;2.33;;;;;;;;;;4917291;29;20120;-36
2021/10/13 09:22:56;;;;;;;1.27;1.05;;;;;;;;;;4917242;29;20036;-36
2021/10/13 09:25:22;;;;;;;1.98;1.40;;;;;;;;;;4917185;29;20034;-36
2021/10/13 09:27:48;;;;;;;2.90;1.33;;;;;;;;;;4916058;29;20020;-36
2021/10/13 09:30:13;;;;;;;2.05;1.20;;;;;;;;;;4916874;29;20046;-36
2021/10/13 09:32:42;;;;;;;1.95;1.17;;;;;;;;;;4915972;29;20106;-36
2021/10/13 09:35:08;;;;;;;2.50;1.33;;;;;;;;;;4917024;29;20043;-36
2021/10/13 09:37:42;;;;;;;1.20;1.10;;;;;;;;;;4916901;29;20012;-37
2021/10/13 09:40:08;;;;;;;3.05;1.10;;;;;;;;;;4916990;29;20051;-38
2021/10/13 09:42:38;;;;;;;3.17;1.20;;;;;;;;;;4917171;29;20024;-36
2021/10/13 09:45:03;;;;;;;1.75;0.80;;;;;;;;;;4916881;29;20034;-36
2021/10/13 09:47:30;;;;;;;2.83;1.38;;;;;;;;;;4916764;29;20024;-36
2021/10/13 09:49:56;;;;;;;1.20;1.05;;;;;;;;;;4916767;29;20483;-36
2021/10/13 09:52:27;;;;;;;0.77;0.68;;;;;;;;;;4916860;29;20107;-36
2021/10/13 09:55:00;;;;;;;1.50;0.85;;;;;;;;;;4916957;29;20108;-37
2021/10/13 09:57:25;;;;;;;;;;;;;;;;;;4916907;29;20124;-36
2021/10/13 10:00:03;;;;;;;3.22;1.13;;;;;;;;;;4915419;29;20007;-36
2021/10/13 10:02:40;;;;;;;1.10;0.90;;;;;;;;;;4916614;29;20036;-36
2021/10/13 10:05:17;;;;;;;1.38;1.27;;;;;;;;;;4916274;29;20038;-36
2021/10/13 10:07:58;;;;;;;1.35;0.80;;;;;;;;;;4916726;29;20036;-36
2021/10/13 10:10:23;;;;;;;1.23;1.00;;;;;;;;;;4916613;29;20047;-36
2021/10/13 10:12:58;;;;;;;0.98;0.60;;;;;;;;;;4916408;29;20036;-36
2021/10/13 10:15:30;;;;;;;0.75;0.73;;;;;;;;;;4915382;29;20028;-37
2021/10/13 10:17:56;;;;;;;1.85;0.82;;;;;;;;;;4916291;29;20467;-37
2021/10/13 10:20:42;;;;;;;1.17;0.68;;;;;;;;;;4916377;29;20031;-36
2021/10/13 10:23:26;;;;;;;1.25;0.88;;;;;;;;;;4915824;29;20087;-36
2021/10/13 10:25:52;;;;;;;0.68;0.47;;;;;;;;;;4916139;29;20028;-36
2021/10/13 10:28:36;;;;;;;0.80;0.70;;;;;;;;;;4915898;29;20040;-36
2021/10/13 10:31:20;;;;;;;0.57;0.50;;;;;;;;;;4915805;29;20051;-36
2021/10/13 10:33:49;;;;;;;1.25;0.80;;;;;;;;;;4916306;29;20044;-36
2021/10/13 10:36:15;;;;;;;1.35;0.95;;;;;;;;;;4915834;29;20028;-37
2021/10/13 10:38:50;;;;;;;0.82;0.80;;;;;;;;;;4914799;29;20043;-36
2021/10/13 10:41:15;;;;;;;0.82;0.75;;;;;;;;;;4915857;29;20035;-37
2021/10/13 10:43:40;;;;;;;0.63;0.63;;;;;;;;;;4915816;29;20028;-36
2021/10/13 10:46:06;;;;;;;1.23;0.70;;;;;;;;;;4915835;29;20024;-37
2021/10/13 10:48:44;;;;;;;1.08;0.73;;;;;;;;;;4915625;29;20455;-36
2021/10/13 10:51:10;;;;;;;1.08;0.52;;;;;;;;;;4915703;29;20035;-37
2021/10/13 10:53:40;;;;;;;0.85;0.52;;;;;;;;;;4915621;29;20028;-37
2021/10/13 10:56:22;;;;;;;0.70;0.60;;;;;;;;;;4915850;29;20039;-37
2021/10/13 10:58:57;;;;;;;0.65;0.55;;;;;;;;;;4915632;29;20463;-37
2021/10/13 11:01:23;;;;;;;0.60;0.60;;;;;;;;;;4915505;29;20033;-36
2021/10/13 11:03:48;;;;;;;0.57;0.40;;;;;;;;;;4915784;29;20032;-36
2021/10/13 11:06:14;;;;;;;0.60;0.60;;;;;;;;;;4915393;29;20060;-36
2021/10/13 11:08:48;;;;;;;1.83;0.40;;;;;;;;;;4914186;29;20107;-36
2021/10/13 11:11:15;;;;;;;1.33;0.73;;;;;;;;;;4915585;29;20032;-36
2021/10/13 11:13:40;;;;;;;2.05;0.30;;;;;;;;;;4915429;29;20024;-36
2021/10/13 11:16:07;;;;;;;0.47;0.35;;;;;;;;;;4915263;29;20043;-36
2021/10/13 11:18:32;;;;;;;0.88;0.50;;;;;;;;;;4915406;29;20031;-36
2021/10/13 11:21:07;;;;;;;0.63;0.40;;;;;;;;;;4915355;29;20491;-37
2021/10/13 11:23:33;;;;;;;0.32;0.32;;;;;;;;;;4915262;29;20097;-36
2021/10/13 11:25:58;;;;;;;0.57;0.22;;;;;;;;;;4915000;29;20387;-36
2021/10/13 11:28:24;;;;;;;0.50;0.40;;;;;;;;;;4915036;29;20028;-36
2021/10/13 11:30:50;;;;;;;0.30;0.22;;;;;;;;;;4915105;29;20452;-36
2021/10/13 11:33:20;;;;;;;0.30;0.30;;;;;;;;;;4915120;29;20383;-36
2021/10/13 11:35:48;;;;;;;1.58;0.47;;;;;;;;;;4915094;29;20040;-36
2021/10/13 11:38:14;;;;;;;0.50;0.30;;;;;;;;;;4915091;29;20437;-36
2021/10/13 11:40:40;;;;;;;0.20;0.20;;;;;;;;;;4915156;29;20016;-36
2021/10/13 11:43:07;;;;;;;0.20;0.20;;;;;;;;;;4915165;29;20534;-36
2021/10/13 11:45:32;;;;;;;0.60;0.40;;;;;;;;;;4914990;29;20031;-36
2021/10/13 11:47:58;;;;;;;0.40;0.30;;;;;;;;;;4915078;29;20044;-36
2021/10/13 11:50:24;;;;;;;0.85;0.35;;;;;;;;;;4915162;29;20036;-36
2021/10/13 11:52:51;;;;;;;0.43;0.20;;;;;;;;;;4914972;29;20547;-36
2021/10/13 11:55:17;;;;;;;0.47;0.32;;;;;;;;;;4915251;29;20059;-36
2021/10/13 11:57:53;;;;;;;0.35;0.35;;;;;;;;;;4913609;29;20032;-36
2021/10/13 12:00:19;;;;;;;0.45;0.30;;;;;;;;;;4914921;29;20028;-38
2021/10/13 12:03:03;;;;;;;0.50;0.50;;;;;;;;;;4914926;29;20039;-36
2021/10/13 12:05:28;;;;;;;0.30;0.20;;;;;;;;;;4914916;29;20036;-36
2021/10/13 12:07:59;;;;;;;0.20;0.20;;;;;;;;;;4915096;29;20490;-36
2021/10/13 12:10:32;;;;;;;0.55;0.40;;;;;;;;;;4915044;29;20075;-37
2021/10/13 12:13:05;;;;;;;0.25;0.25;;;;;;;;;;4914808;29;20120;-36
2021/10/13 12:15:31;;;;;;;0.30;0.30;;;;;;;;;;4915016;29;20044;-36
2021/10/13 12:18:16;;;;;;;0.30;0.30;;;;;;;;;;4914771;29;20024;-36
2021/10/13 12:20:43;;;;;;;0.75;0.75;;;;;;;;;;4914726;29;20091;-36
2021/10/13 12:23:10;;;;;;;0.30;0.20;;;;;;;;;;4914674;29;20463;-36
2021/10/13 12:25:36;;;;;;;0.35;0.35;;;;;;;;;;4914808;29;20043;-37
2021/10/13 12:28:01;;;;;;;0.47;0.47;;;;;;;;;;4914907;29;20028;-37
2021/10/13 12:30:31;;;;;;;0.43;0.43;;;;;;;;;;4914645;29;20790;-37
2021/10/13 12:33:00;;;;;;;0.35;0.30;;;;;;;;;;4914750;29;20491;-36
2021/10/13 12:35:28;;;;;;;1.67;0.30;;;;;;;;;;4914579;29;20119;-36
2021/10/13 12:37:53;;;;;;;0.57;0.35;;;;;;;;;;4915214;29;20028;-36
2021/10/13 12:40:19;;;;;;;0.40;0.40;;;;;;;;;;4918268;29;20065;-36
2021/10/13 12:42:44;;;;;;;0.30;0.20;;;;;;;;;;4917918;29;20024;-36
2021/10/13 12:45:10;;;;;;;0.38;0.30;;;;;;;;;;4917925;29;20036;-36
2021/10/13 12:47:35;;;;;;;0.77;0.30;;;;;;;;;;4917905;29;20534;-39
2021/10/13 12:50:10;;;;;;;1.02;0.93;;;;;;;;;;4918064;29;20646;-37
2021/10/13 12:52:36;;;;;;;0.75;0.40;;;;;;;;;;4917816;29;20506;-36
2021/10/13 12:55:02;;;;;;;1.10;0.20;;;;;;;;;;4917861;29;20061;-36
2021/10/13 12:57:29;;;;;;;0.30;0.30;;;;;;;;;;4917574;29;20141;-36
2021/10/13 12:59:55;;;;;;;1.05;0.60;;;;;;;;;;4917717;29;20790;-36
2021/10/13 13:02:20;;;;;;;0.60;0.30;;;;;;;;;;4917653;29;20123;-37
2021/10/13 13:04:46;;;;;;;0.55;0.30;;;;;;;;;;4917825;29;20028;-36
2021/10/13 13:07:12;;;;;;;0.35;0.30;;;;;;;;;;4917551;29;20028;-37
2021/10/13 13:09:38;;;;;;;0.80;0.52;;;;;;;;;;4917436;29;20039;-37
2021/10/13 13:12:04;;;;;;;0.63;0.50;;;;;;;;;;4917719;29;20024;-37
2021/10/13 13:14:29;;;;;;;0.35;0.25;;;;;;;;;;4917443;29;20047;-36
2021/10/13 13:16:55;;;;;;;4.72;0.40;;;;;;;;;;4917425;29;20068;-36
2021/10/13 13:19:20;;;;;;;0.40;0.40;;;;;;;;;;4917501;29;20043;-36
2021/10/13 13:21:47;;;;;;;0.38;0.38;;;;;;;;;;4917424;29;20499;-36
2021/10/13 13:24:13;;;;;;;1.02;0.47;;;;;;;;;;4917166;29;20024;-36
2021/10/13 13:26:39;;;;;;;0.50;0.30;;;;;;;;;;4916287;29;20381;-36
2021/10/13 13:29:05;;;;;;;0.63;0.20;;;;;;;;;;4917109;29;20031;-36
2021/10/13 13:31:30;;;;;;;4.13;0.28;;;;;;;;;;4916845;29;20075;-36
2021/10/13 13:33:56;;;;;;;3.42;0.50;;;;;;;;;;4917143;29;20036;-36
2021/10/13 13:36:21;;;;;;;1.23;0.60;;;;;;;;;;4917140;29;20467;-37
2021/10/13 13:38:47;;;;;;;0.50;0.50;;;;;;;;;;4916935;29;20040;-37
2021/10/13 13:41:13;;;;;;;0.52;0.30;;;;;;;;;;4916846;29;20380;-37
2021/10/13 13:43:39;;;;;;;0.40;0.40;;;;;;;;;;4916867;29;20035;-40
2021/10/13 13:46:04;;;;;;;0.73;0.30;;;;;;;;;;4916861;29;20032;-37
2021/10/13 13:48:30;;;;;;;0.30;0.20;;;;;;;;;;4916650;29;20076;-37
2021/10/13 13:50:56;;;;;;;0.40;0.30;;;;;;;;;;4916656;29;20035;-37
2021/10/13 13:53:26;;;;;;;0.22;0.22;;;;;;;;;;4916803;29;20464;-36
2021/10/13 13:55:52;;;;;;;0.73;0.40;;;;;;;;;;4916581;29;20436;-37
2021/10/13 13:58:17;;;;;;;0.35;0.25;;;;;;;;;;4916750;29;20039;-36
2021/10/13 14:00:43;;;;;;;0.20;0.20;;;;;;;;;;4916520;29;20119;-36
2021/10/13 14:03:09;;;;;;;1.48;0.47;;;;;;;;;;4916596;29;20035;-37
2021/10/13 14:05:34;;;;;;;0.47;0.38;;;;;;;;;;4916443;29;20063;-37
2021/10/13 14:08:00;;;;;;;0.85;0.77;;;;;;;;;;4916388;29;20188;-37
2021/10/13 14:10:25;;;;;;;3.35;0.40;;;;;;;;;;4916259;29;20047;-37
2021/10/13 14:12:51;;;;;;;0.50;0.22;;;;;;;;;;4916415;29;20035;-37
2021/10/13 14:15:16;;;;;;;0.40;0.30;;;;;;;;;;4916168;29;20058;-36
2021/10/13 14:17:42;;;;;;;1.52;0.68;;;;;;;;;;4916425;29;20020;-37
2021/10/13 14:20:07;;;;;;;0.70;0.38;;;;;;;;;;4915054;29;20387;-37
2021/10/13 14:22:33;;;;;;;0.47;0.40;;;;;;;;;;4916133;29;20552;-37
2021/10/13 14:24:59;;;;;;;1.10;0.50;;;;;;;;;;4916220;29;20495;-36
2021/10/13 14:27:24;;;;;;;0.75;0.40;;;;;;;;;;4915945;29;20103;-36
2021/10/13 14:29:50;;;;;;;0.30;0.30;;;;;;;;;;4916062;29;20048;-36
2021/10/13 14:32:17;;;;;;;0.60;0.40;;;;;;;;;;4915770;29;20052;-36
2021/10/13 14:34:46;;;;;;;0.13;0.13;;;;;;;;;;4916222;29;20387;-37
2021/10/13 14:37:12;;;;;;;1.00;0.40;;;;;;;;;;4915715;29;20020;-36
2021/10/13 14:39:37;;;;;;;0.38;0.38;;;;;;;;;;4916138;29;20038;-36
2021/10/13 14:42:02;;;;;;;1.13;1.00;;;;;;;;;;4915863;29;20527;-36
2021/10/13 14:44:28;;;;;;;0.22;0.22;;;;;;;;;;4915883;29;20040;-36